createdAt,value
2022-09-13T00:01:08.511Z,100405.53
2022-09-13T00:03:35.114Z,100408.31
2022-09-13T00:06:16.194Z,100404.84
2022-09-13T00:08:43.352Z,100413.97
2022-09-13T00:11:19.583Z,100411.84
2022-09-13T00:13:46.839Z,100409.22
2022-09-13T00:16:18.320Z,100398.22
2022-09-13T00:18:45.062Z,100397.38
2022-09-13T00:21:17.481Z,100398.22
2022-09-13T00:23:49.017Z,100391.06
2022-09-13T00:26:21.840Z,100392.13
2022-09-13T00:28:53.258Z,100384.91
2022-09-13T00:31:24.525Z,100386.47
2022-09-13T00:33:51.399Z,100384.28
2022-09-13T00:36:18.137Z,100388.19
2022-09-13T00:38:44.777Z,100388.47
2022-09-13T00:41:14.457Z,100396.56
2022-09-13T00:43:44.740Z,100397.91
2022-09-13T00:46:26.623Z,100394.00
2022-09-13T00:48:57.287Z,100392.19
2022-09-13T00:51:23.969Z,100391.31
2022-09-13T00:53:52.712Z,100384.44
2022-09-13T00:56:25.421Z,100379.75
2022-09-13T00:59:00.728Z,100376.66
2022-09-13T01:01:33.737Z,100375.13
2022-09-13T01:04:02.929Z,100367.84
2022-09-13T01:06:33.162Z,100380.59
2022-09-13T01:09:04.105Z,100376.31
2022-09-13T01:11:50.297Z,100367.03
2022-09-13T01:14:18.508Z,100374.44
2022-09-13T01:16:47.919Z,100382.44
2022-09-13T01:19:14.939Z,100375.28
2022-09-13T01:21:53.412Z,100383.63
2022-09-13T01:24:23.317Z,100377.84
2022-09-13T01:27:19.306Z,100370.69
2022-09-13T01:30:13.523Z,100360.19
2022-09-13T01:33:10.361Z,100367.41
2022-09-13T01:35:52.131Z,100364.88
2022-09-13T01:38:46.475Z,100356.97
2022-09-13T01:41:22.997Z,100358.63
2022-09-13T01:44:04.548Z,100356.66
2022-09-13T01:46:47.672Z,100354.38
2022-09-13T01:49:21.930Z,100350.66
2022-09-13T01:51:59.582Z,100361.28
2022-09-13T01:54:44.484Z,100355.19
2022-09-13T01:57:16.799Z,100358.84
2022-09-13T02:00:12.451Z,100358.72
2022-09-13T02:02:59.869Z,100353.31
2022-09-13T02:05:50.437Z,100357.88
2022-09-13T02:08:19.257Z,100356.13
2022-09-13T02:10:57.750Z,100353.47
2022-09-13T02:13:28.340Z,100348.94
2022-09-13T02:15:59.876Z,100356.84
2022-09-13T02:18:38.790Z,100352.75
2022-09-13T02:21:10.932Z,100353.94
2022-09-13T02:24:04.051Z,100357.56
2022-09-13T02:26:31.778Z,100355.91
2022-09-13T02:28:59.904Z,100357.47
2022-09-13T02:31:31.371Z,100347.66
2022-09-13T02:34:03.356Z,100350.25
2022-09-13T02:36:32.436Z,100346.94
2022-09-13T02:39:18.552Z,100349.44
2022-09-13T02:41:49.419Z,100340.59
2022-09-13T02:44:22.455Z,100342.72
2022-09-13T02:47:11.949Z,100348.84
2022-09-13T02:50:12.166Z,100354.25
2022-09-13T02:52:47.099Z,100348.72
2022-09-13T02:55:29.425Z,100359.19
2022-09-13T02:58:18.054Z,100350.09
2022-09-13T03:00:46.515Z,100346.28
2022-09-13T03:03:15.849Z,100355.47
2022-09-13T03:05:43.027Z,100360.56
2022-09-13T03:08:12.248Z,100363.00
2022-09-13T03:10:57.864Z,100361.16
2022-09-13T03:13:34.795Z,100363.50
2022-09-13T03:16:04.682Z,100371.41
2022-09-13T03:18:46.547Z,100370.53
2022-09-13T03:21:35.138Z,100371.06
2022-09-13T03:24:16.807Z,100369.50
2022-09-13T03:27:10.897Z,100364.91
2022-09-13T03:29:47.489Z,100373.56
2022-09-13T03:32:55.225Z,100361.38
2022-09-13T03:35:28.030Z,100354.22
2022-09-13T03:38:02.039Z,100352.78
2022-09-13T03:40:46.519Z,100349.09
2022-09-13T03:43:14.004Z,100349.25
2022-09-13T03:45:50.311Z,100350.31
2022-09-13T03:48:18.040Z,100350.44
2022-09-13T03:50:46.918Z,100334.25
2022-09-13T03:53:16.784Z,100333.13
2022-09-13T03:55:44.118Z,100339.97
2022-09-13T03:58:13.371Z,100337.09
2022-09-13T04:00:41.120Z,100333.09
2022-09-13T04:03:08.893Z,100335.91
2022-09-13T04:05:35.824Z,100330.75
2022-09-13T04:08:03.933Z,100330.44
2022-09-13T04:10:31.682Z,100335.44
2022-09-13T04:13:00.327Z,100337.75
2022-09-13T04:15:28.235Z,100336.94
2022-09-13T04:17:54.894Z,100335.63
2022-09-13T04:20:24.722Z,100344.34
2022-09-13T04:22:57.677Z,100344.41
2022-09-13T04:25:24.443Z,100344.25
2022-09-13T04:27:55.470Z,100336.56
2022-09-13T04:30:24.547Z,100333.78
2022-09-13T04:33:14.090Z,100341.22
2022-09-13T04:36:23.870Z,100335.53
2022-09-13T04:38:50.492Z,100331.91
2022-09-13T04:41:17.491Z,100334.38
2022-09-13T04:43:44.146Z,100334.00
2022-09-13T04:46:10.785Z,100339.78
2022-09-13T04:48:37.714Z,100346.31
2022-09-13T04:51:05.112Z,100352.44
2022-09-13T04:53:32.278Z,100345.53
2022-09-13T04:56:03.190Z,100347.69
2022-09-13T04:58:29.973Z,100350.41
2022-09-13T05:01:08.032Z,100358.63
2022-09-13T05:03:35.440Z,100355.06
2022-09-13T05:06:06.538Z,100358.56
2022-09-13T05:08:33.233Z,100348.97
2022-09-13T05:10:59.789Z,100350.72
2022-09-13T05:13:27.385Z,100348.59
2022-09-13T05:15:58.120Z,100345.63
2022-09-13T05:18:33.401Z,100352.13
2022-09-13T05:21:01.408Z,100349.44
2022-09-13T05:23:29.470Z,100351.19
2022-09-13T05:25:57.760Z,100349.03
2022-09-13T05:28:25.156Z,100351.69
2022-09-13T05:31:10.096Z,100346.72
2022-09-13T05:33:38.217Z,100351.47
2022-09-13T05:36:06.230Z,100362.28
2022-09-13T05:38:33.755Z,100365.59
2022-09-13T05:41:02.479Z,100347.66
2022-09-13T05:43:34.529Z,100346.97
2022-09-13T05:46:05.434Z,100350.31
2022-09-13T05:48:32.857Z,100360.97
2022-09-13T05:51:11.564Z,100360.09
2022-09-13T05:53:42.099Z,100358.13
2022-09-13T05:56:14.548Z,100358.78
2022-09-13T05:58:45.142Z,100365.81
2022-09-13T06:01:13.306Z,100371.41
2022-09-13T06:03:39.908Z,100370.31
2022-09-13T06:06:07.008Z,100380.06
2022-09-13T06:08:34.622Z,100373.50
2022-09-13T06:11:06.524Z,100381.03
2022-09-13T06:13:33.587Z,100376.59
2022-09-13T06:16:02.134Z,100373.38
2022-09-13T06:18:29.027Z,100371.56
2022-09-13T06:21:04.819Z,100370.28
2022-09-13T06:23:31.898Z,100368.75
2022-09-13T06:26:08.696Z,100365.44
2022-09-13T06:28:37.536Z,100365.78
2022-09-13T06:31:04.363Z,100366.13
2022-09-13T06:33:31.068Z,100367.09
2022-09-13T06:36:00.834Z,100371.53
2022-09-13T06:38:28.971Z,100370.41
2022-09-13T06:41:10.577Z,100370.44
2022-09-13T06:43:40.747Z,100371.28
2022-09-13T06:46:13.372Z,100366.09
2022-09-13T06:48:41.607Z,100370.03
2022-09-13T06:51:11.244Z,100364.53
2022-09-13T06:53:38.579Z,100353.91
2022-09-13T06:56:15.107Z,100360.81
2022-09-13T06:58:46.056Z,100358.47
2022-09-13T07:01:21.522Z,100356.72
2022-09-13T07:03:50.885Z,100358.72
2022-09-13T07:06:22.405Z,100355.78
2022-09-13T07:08:51.439Z,100361.06
2022-09-13T07:11:22.142Z,100372.03
2022-09-13T07:13:50.452Z,100367.16
2022-09-13T07:16:18.305Z,100369.94
2022-09-13T07:18:45.803Z,100366.75
2022-09-13T07:21:12.616Z,100364.97
2022-09-13T07:23:39.817Z,100362.41
2022-09-13T07:26:07.679Z,100366.13
2022-09-13T07:28:43.646Z,100361.44
2022-09-13T07:31:18.671Z,100372.13
2022-09-13T07:33:45.533Z,100366.38
2022-09-13T07:36:13.710Z,100368.03
2022-09-13T07:38:42.695Z,100370.13
2022-09-13T07:41:13.102Z,100376.28
2022-09-13T07:43:39.903Z,100374.44
2022-09-13T07:46:08.841Z,100377.50
2022-09-13T07:48:37.871Z,100380.59
2022-09-13T07:51:26.021Z,100380.97
2022-09-13T07:53:57.481Z,100379.59
2022-09-13T07:56:30.089Z,100375.81
2022-09-13T07:59:00.836Z,100380.66
2022-09-13T08:01:45.738Z,100383.63
2022-09-13T08:04:17.148Z,100384.50
2022-09-13T08:06:44.281Z,100394.13
2022-09-13T08:09:11.623Z,100395.41
2022-09-13T08:11:42.951Z,100393.41
2022-09-13T08:14:12.379Z,100397.81
2022-09-13T08:16:41.876Z,100403.50
2022-09-13T08:19:11.020Z,100405.06
2022-09-13T08:21:39.092Z,100399.13
2022-09-13T08:24:08.695Z,100401.47
2022-09-13T08:26:36.511Z,100396.34
2022-09-13T08:29:05.341Z,100398.34
2022-09-13T08:31:33.004Z,100395.34
2022-09-13T08:34:00.005Z,100400.34
2022-09-13T08:36:28.215Z,100390.59
2022-09-13T08:38:57.884Z,100393.53
2022-09-13T08:41:37.184Z,100385.88
2022-09-13T08:44:19.173Z,100386.75
2022-09-13T08:46:46.857Z,100379.28
2022-09-13T08:49:35.793Z,100391.44
2022-09-13T08:52:22.227Z,100388.69
2022-09-13T08:54:54.876Z,100381.88
2022-09-13T08:57:26.928Z,100383.56
2022-09-13T09:00:20.124Z,100392.31
2022-09-13T09:03:12.110Z,100387.25
2022-09-13T09:05:50.299Z,100379.34
2022-09-13T09:08:38.274Z,100380.22
2022-09-13T09:11:29.969Z,100377.53
2022-09-13T09:14:16.105Z,100387.03
2022-09-13T09:16:53.873Z,100388.97
2022-09-13T09:19:24.498Z,100386.59
2022-09-13T09:21:52.195Z,100376.16
2022-09-13T09:24:25.711Z,100382.38
2022-09-13T09:26:58.287Z,100380.53
2022-09-13T09:29:28.535Z,100381.13
2022-09-13T09:32:19.408Z,100381.81
2022-09-13T09:35:15.301Z,100385.34
2022-09-13T09:37:43.155Z,100383.34
2022-09-13T09:40:13.391Z,100386.91
2022-09-13T09:42:45.919Z,100378.63
2022-09-13T09:45:28.144Z,100378.00
2022-09-13T09:47:56.210Z,100379.63
2022-09-13T09:50:30.161Z,100376.41
2022-09-13T09:53:15.479Z,100376.59
2022-09-13T09:55:48.656Z,100367.56
2022-09-13T09:58:19.124Z,100377.44
2022-09-13T10:00:56.834Z,100374.28
2022-09-13T10:03:32.253Z,100371.53
2022-09-13T10:06:09.664Z,100361.13
2022-09-13T10:08:38.150Z,100360.66
2022-09-13T10:11:06.231Z,100362.50
2022-09-13T10:13:33.141Z,100362.66
2022-09-13T10:16:02.934Z,100361.53
2022-09-13T10:18:46.617Z,100366.53
2022-09-13T10:21:19.362Z,100363.41
2022-09-13T10:23:53.338Z,100366.19
2022-09-13T10:26:23.653Z,100362.59
2022-09-13T10:28:57.341Z,100360.78
2022-09-13T10:31:30.504Z,100371.25
2022-09-13T10:34:02.892Z,100361.59
2022-09-13T10:36:54.323Z,100358.09
2022-09-13T10:39:25.571Z,100359.47
2022-09-13T10:42:09.433Z,100360.97
2022-09-13T10:44:44.212Z,100358.09
2022-09-13T10:47:11.657Z,100360.84
2022-09-13T10:49:39.765Z,100358.69
2022-09-13T10:52:47.321Z,100365.72
2022-09-13T10:55:34.306Z,100361.44
2022-09-13T10:58:03.725Z,100351.31
2022-09-13T11:00:52.377Z,100354.94
2022-09-13T11:03:46.656Z,100367.06
2022-09-13T11:06:13.303Z,100355.19
2022-09-13T11:08:40.166Z,100355.50
2022-09-13T11:11:21.973Z,100349.94
2022-09-13T11:13:58.381Z,100347.16
2022-09-13T11:16:46.442Z,100344.59
2022-09-13T11:19:53.020Z,100349.94
2022-09-13T11:22:36.806Z,100346.56
2022-09-13T11:25:24.635Z,100338.41
2022-09-13T11:27:57.158Z,100337.38
2022-09-13T11:30:29.808Z,100329.56
2022-09-13T11:33:08.838Z,100327.28
2022-09-13T11:36:12.900Z,100322.03
2022-09-13T11:39:25.427Z,100321.56
2022-09-13T11:42:01.035Z,100311.59
2022-09-13T11:44:42.213Z,100311.47
2022-09-13T11:47:27.820Z,100317.22
2022-09-13T11:49:58.889Z,100318.19
2022-09-13T11:52:43.941Z,100319.81
2022-09-13T11:55:29.639Z,100302.25
2022-09-13T11:57:59.682Z,100302.25
2022-09-13T12:00:31.141Z,100298.22
2022-09-13T12:03:02.818Z,100295.63
2022-09-13T12:05:36.515Z,100298.22
2022-09-13T12:08:13.949Z,100298.69
2022-09-13T12:10:50.540Z,100292.44
2022-09-13T12:13:32.743Z,100293.34
2022-09-13T12:16:03.373Z,100282.31
2022-09-13T12:18:35.092Z,100283.94
2022-09-13T12:21:19.266Z,100290.75
2022-09-13T12:24:01.253Z,100286.81
2022-09-13T12:26:38.923Z,100284.81
2022-09-13T12:29:16.232Z,100273.94
2022-09-13T12:31:42.963Z,100277.59
2022-09-13T12:34:17.082Z,100283.00
2022-09-13T12:37:22.274Z,100286.28
2022-09-13T12:40:18.483Z,100279.88
2022-09-13T12:43:03.329Z,100276.81
2022-09-13T12:45:54.684Z,100273.50
2022-09-13T12:48:37.561Z,100271.75
2022-09-13T12:51:23.138Z,100281.09
2022-09-13T12:54:11.710Z,100278.06
2022-09-13T12:56:57.051Z,100280.81
2022-09-13T12:59:35.812Z,100275.34
2022-09-13T13:02:27.269Z,100276.03
2022-09-13T13:04:58.413Z,100272.47
2022-09-13T13:07:25.319Z,100266.56
2022-09-13T13:09:57.299Z,100277.16
2022-09-13T13:12:37.437Z,100274.25
2022-09-13T13:15:30.483Z,100274.13
2022-09-13T13:17:57.367Z,100266.59
2022-09-13T13:21:04.725Z,100272.22
2022-09-13T13:23:37.027Z,100276.03
2022-09-13T13:26:23.431Z,100269.66
2022-09-13T13:28:53.180Z,100265.22
2022-09-13T13:31:32.531Z,100270.25
2022-09-13T13:34:23.885Z,100270.69
2022-09-13T13:36:58.306Z,100266.97
2022-09-13T13:39:25.104Z,100263.81
2022-09-13T13:41:59.878Z,100265.22
2022-09-13T13:44:26.376Z,100258.56
2022-09-13T13:46:55.471Z,100263.09
2022-09-13T13:49:31.526Z,100264.50
2022-09-13T13:52:26.894Z,100267.09
2022-09-13T13:55:33.529Z,100254.47
2022-09-13T13:58:07.277Z,100256.16
2022-09-13T14:00:35.331Z,100252.00
2022-09-13T14:03:02.016Z,100253.97
2022-09-13T14:05:50.319Z,100252.94
2022-09-13T14:08:22.768Z,100254.00
2022-09-13T14:10:58.546Z,100247.59
2022-09-13T14:14:02.474Z,100247.84
2022-09-13T14:17:00.193Z,100243.16
2022-09-13T14:19:31.329Z,100229.25
2022-09-13T14:22:23.887Z,100240.69
2022-09-13T14:24:59.010Z,100245.69
2022-09-13T14:27:30.962Z,100236.28
2022-09-13T14:30:00.673Z,100235.91
2022-09-13T14:32:42.080Z,100241.41
2022-09-13T14:35:24.394Z,100241.69
2022-09-13T14:37:51.176Z,100231.44
2022-09-13T14:40:22.354Z,100237.78
2022-09-13T14:42:51.619Z,100238.53
2022-09-13T14:45:30.124Z,100238.75
2022-09-13T14:48:25.050Z,100236.81
2022-09-13T14:50:56.703Z,100240.88
2022-09-13T14:53:25.883Z,100232.78
2022-09-13T14:56:07.388Z,100236.88
2022-09-13T14:58:55.115Z,100227.59
2022-09-13T15:01:35.945Z,100225.16
2022-09-13T15:04:04.758Z,100225.63
2022-09-13T15:06:42.826Z,100226.47
2022-09-13T15:09:12.485Z,100227.72
2022-09-13T15:11:51.925Z,100222.63
2022-09-13T15:14:39.982Z,100235.97
2022-09-13T15:17:09.636Z,100224.16
2022-09-13T15:19:51.052Z,100234.97
2022-09-13T15:22:28.272Z,100229.56
2022-09-13T15:24:57.166Z,100227.22
2022-09-13T15:27:44.815Z,100225.31
2022-09-13T15:30:30.681Z,100220.38
2022-09-13T15:33:26.495Z,100224.53
2022-09-13T15:35:56.348Z,100232.41
2022-09-13T15:38:26.604Z,100217.22
2022-09-13T15:41:12.046Z,100225.31
2022-09-13T15:43:39.099Z,100225.66
2022-09-13T15:46:06.787Z,100232.41
2022-09-13T15:48:35.707Z,100231.16
2022-09-13T15:51:12.181Z,100222.91
2022-09-13T15:53:41.253Z,100227.88
2022-09-13T15:56:09.375Z,100232.53
2022-09-13T15:58:36.434Z,100232.84
2022-09-13T16:01:04.157Z,100226.66
2022-09-13T16:03:31.274Z,100220.41
2022-09-13T16:05:58.740Z,100217.41
2022-09-13T16:08:25.751Z,100227.59
2022-09-13T16:10:53.205Z,100228.44
2022-09-13T16:13:19.957Z,100221.56
2022-09-13T16:21:24.013Z,100224.84
2022-09-13T16:23:51.018Z,100214.91
2022-09-13T16:26:17.859Z,100227.78
2022-09-13T16:28:51.570Z,100230.88
2022-09-13T16:31:26.465Z,100225.09
2022-09-13T16:33:53.162Z,100236.03
2022-09-13T16:36:19.798Z,100226.59
2022-09-13T16:38:46.542Z,100224.53
2022-09-13T16:41:13.273Z,100225.09
2022-09-13T16:43:39.932Z,100230.03
2022-09-13T16:46:08.582Z,100229.03
2022-09-13T16:48:36.306Z,100221.63
2022-09-13T16:51:09.368Z,100237.66
2022-09-13T16:53:41.890Z,100232.28
2022-09-13T16:56:23.230Z,100231.63
2022-09-13T16:58:51.147Z,100224.47
2022-09-13T17:01:26.017Z,100224.66
2022-09-13T17:03:55.649Z,100218.16
2022-09-13T17:06:23.412Z,100223.47
2022-09-13T17:08:53.611Z,100232.06
2022-09-13T17:11:22.399Z,100225.09
2022-09-13T17:13:49.317Z,100227.75
2022-09-13T17:16:34.068Z,100234.66
2022-09-13T17:19:04.429Z,100228.94
2022-09-13T17:21:33.163Z,100229.41
2022-09-13T17:24:00.785Z,100232.38
2022-09-13T17:26:27.695Z,100234.25
2022-09-13T17:28:54.445Z,100238.13
2022-09-13T17:31:21.275Z,100232.53
2022-09-13T17:33:48.482Z,100231.97
2022-09-13T17:36:15.606Z,100226.00
2022-09-13T17:38:42.785Z,100221.38
2022-09-13T17:41:19.411Z,100230.47
2022-09-13T17:43:47.129Z,100232.56
2022-09-13T17:46:16.558Z,100227.13
2022-09-13T17:48:44.013Z,100230.16
2022-09-13T17:51:12.786Z,100226.22
2022-09-13T17:53:46.238Z,100228.16
2022-09-13T17:56:20.659Z,100229.03
2022-09-13T17:58:48.099Z,100220.66
2022-09-13T18:01:15.302Z,100224.88
2022-09-13T18:03:42.257Z,100226.88
2022-09-13T18:06:09.920Z,100223.50
2022-09-13T18:08:37.955Z,100228.00
2022-09-13T18:11:13.646Z,100224.88
2022-09-13T18:13:42.947Z,100233.97
2022-09-13T18:16:21.651Z,100226.78
2022-09-13T18:18:50.478Z,100223.13
2022-09-13T18:21:22.906Z,100232.97
2022-09-13T18:23:51.746Z,100223.91
2022-09-13T18:26:20.934Z,100229.22
2022-09-13T18:28:52.572Z,100219.69
2022-09-13T18:31:19.445Z,100219.69
2022-09-13T18:33:46.626Z,100221.78
2022-09-13T18:36:16.365Z,100216.91
2022-09-13T18:38:47.999Z,100215.09
2022-09-13T18:41:18.520Z,100212.88
2022-09-13T18:43:46.615Z,100204.69
2022-09-13T18:46:16.198Z,100209.19
2022-09-13T18:48:45.355Z,100211.25
2022-09-13T18:51:15.154Z,100209.94
2022-09-13T18:53:42.291Z,100203.84
2022-09-13T18:56:10.855Z,100215.78
2022-09-13T18:58:38.967Z,100222.69
2022-09-13T19:01:11.971Z,100216.50
2022-09-13T19:03:39.826Z,100222.78
2022-09-13T19:06:17.574Z,100225.34
2022-09-13T19:08:44.924Z,100224.34
2022-09-13T19:11:29.083Z,100219.38
2022-09-13T19:13:59.078Z,100227.63
2022-09-13T19:16:28.473Z,100226.94
2022-09-13T19:18:58.257Z,100225.94
2022-09-13T19:21:31.115Z,100217.44
2022-09-13T19:24:21.131Z,100215.19
2022-09-13T19:26:57.429Z,100230.69
2022-09-13T19:29:28.056Z,100220.44
2022-09-13T19:31:55.962Z,100222.03
2022-09-13T19:34:23.227Z,100225.50
2022-09-13T19:36:54.277Z,100228.34
2022-09-13T19:39:23.811Z,100233.72
2022-09-13T19:41:53.568Z,100230.28
2022-09-13T19:44:20.521Z,100229.34
2022-09-13T19:46:47.981Z,100228.56
2022-09-13T19:49:16.893Z,100226.38
2022-09-13T19:51:48.807Z,100227.84
2022-09-13T19:54:18.813Z,100230.47
2022-09-13T19:56:45.965Z,100227.56
2022-09-13T19:59:15.137Z,100224.78
2022-09-13T20:01:44.055Z,100222.72
2022-09-13T20:04:19.616Z,100219.94
2022-09-13T20:06:48.651Z,100218.28
2022-09-13T20:09:17.314Z,100215.59
2022-09-13T20:11:48.589Z,100210.84
2022-09-13T20:14:18.263Z,100207.81
2022-09-13T20:16:45.235Z,100205.22
2022-09-13T20:22:09.707Z,100219.78
2022-09-13T20:24:37.547Z,100228.25
2022-09-13T20:27:04.452Z,100220.63
2022-09-13T20:29:31.714Z,100226.38
2022-09-13T20:31:59.543Z,100232.38
2022-09-13T20:34:27.140Z,100229.19
2022-09-13T20:36:53.748Z,100234.75
2022-09-13T20:39:20.456Z,100229.50
2022-09-13T20:41:49.319Z,100236.91
2022-09-13T20:44:16.080Z,100239.66
2022-09-13T20:46:43.399Z,100242.44
2022-09-13T20:49:10.365Z,100235.03
2022-09-13T20:51:38.628Z,100241.63
2022-09-13T20:54:05.699Z,100240.78
2022-09-13T20:56:34.661Z,100234.06
2022-09-13T20:59:02.205Z,100238.09
2022-09-13T21:01:30.332Z,100237.31
2022-09-13T21:03:57.439Z,100233.03
2022-09-13T21:06:26.779Z,100240.94
2022-09-13T21:08:54.062Z,100232.22
2022-09-13T21:11:30.088Z,100232.75
2022-09-13T21:13:59.555Z,100236.75
2022-09-13T21:16:29.025Z,100223.19
2022-09-13T21:18:56.361Z,100223.72
2022-09-13T21:21:30.092Z,100231.63
2022-09-13T21:23:58.127Z,100238.59
2022-09-13T21:26:26.894Z,100238.91
2022-09-13T21:28:54.577Z,100241.44
2022-09-13T21:31:25.106Z,100238.25
2022-09-13T21:34:02.277Z,100235.69
2022-09-13T21:36:29.763Z,100240.75
2022-09-13T21:38:56.939Z,100229.75
2022-09-13T21:41:50.234Z,100229.63
2022-09-13T21:44:17.190Z,100232.63
2022-09-13T21:46:46.470Z,100230.03
2022-09-13T21:49:14.113Z,100223.59
2022-09-13T21:51:43.696Z,100216.81
2022-09-13T21:54:14.353Z,100222.97
2022-09-13T21:56:45.083Z,100205.88
2022-09-13T21:59:15.503Z,100206.25
2022-09-13T22:01:46.273Z,100206.19
2022-09-13T22:04:22.494Z,100216.03
2022-09-13T22:06:56.736Z,100217.84
2022-09-13T22:09:28.841Z,100221.78
2022-09-13T22:12:01.053Z,100229.13
2022-09-13T22:14:30.575Z,100227.28
2022-09-13T22:16:57.769Z,100214.69
2022-09-13T22:19:26.830Z,100213.88
2022-09-13T22:21:59.090Z,100213.88
2022-09-13T22:24:28.377Z,100212.81
2022-09-13T22:26:56.641Z,100217.63
2022-09-13T22:29:23.501Z,100208.66
2022-09-13T22:31:52.101Z,100214.28
2022-09-13T22:34:22.327Z,100216.13
2022-09-13T22:36:49.108Z,100217.19
2022-09-13T22:39:16.615Z,100221.09
2022-09-13T22:41:45.649Z,100219.44
2022-09-13T22:44:13.492Z,100231.19
2022-09-13T22:46:43.663Z,100226.09
2022-09-13T22:49:15.496Z,100229.81
2022-09-13T22:51:55.427Z,100227.97
2022-09-13T22:54:22.099Z,100222.25
2022-09-13T22:56:48.751Z,100216.50
2022-09-13T22:59:17.845Z,100212.03
2022-09-13T23:01:44.892Z,100212.16
2022-09-13T23:04:14.633Z,100203.06
2022-09-13T23:06:58.312Z,100199.88
2022-09-13T23:09:24.921Z,100196.34
2022-09-13T23:11:56.964Z,100201.31
2022-09-13T23:14:23.689Z,100198.97
2022-09-13T23:16:54.903Z,100192.84
2022-09-13T23:19:22.785Z,100188.13
2022-09-13T23:21:49.765Z,100190.03
2022-09-13T23:24:18.923Z,100187.94
2022-09-13T23:26:46.771Z,100177.31
2022-09-13T23:29:15.846Z,100186.41
2022-09-13T23:31:43.524Z,100188.16
2022-09-13T23:34:11.139Z,100185.88
2022-09-13T23:36:39.708Z,100185.28
2022-09-13T23:39:08.462Z,100181.78
2022-09-13T23:41:35.433Z,100191.69
2022-09-13T23:44:02.563Z,100190.94
2022-09-13T23:46:29.423Z,100184.97
2022-09-13T23:48:56.546Z,100189.63
2022-09-13T23:51:25.290Z,100187.97
2022-09-13T23:53:56.906Z,100188.81
2022-09-13T23:56:28.927Z,100183.22
2022-09-13T23:58:57.515Z,100174.78
